aviador You're here:

SBKP Decoded Metar

CAMPINAS in BRAZIL
Report Time2017-09-20 15:00:00
UTC Time2017-09-20 16:27:14
Flight Rules Old
WindVRB at 06 kt
Visibility9999 m
Phenomena:N/A
Clouds:Few 030 Hf
Expected CloudBase > 7,600 ft AGL from Temp-Dew spread
CeilingNone
Temp29°C (ISA +18)
Dew Point10°C (31% RH)
Heat Index27.9°C
AAT26.9°C
QNH1022 hPa
Density Alt4,131 ft
Elevation2,169 ft
Report Wrong Elevation
Raw Report
METAR SBKP 201500Z VRB06KT 9999 FEW030 29/10 Q1022=

Extra information for SBKP:More info

Metar Taf Metar & Taf Last 4 Metars F.Rules Stats Wind Profile Meteogram Temp Stats Airport Information Weather charts Add Link Nearby VenuesMetar ALERT Operation Metar Decoded Social comments